Terminal Aerodrome Forecast
Issued by NWS Cleveland, OH

Home | Current Version | Previous Version | Graphics & Text | Print | Product List | Glossary Off
Versions: 1 2 3 4 5 6 7 8 9 10 11 12 13 14 15

000
FTUS41 KCLE 261739
TAFERI
TAF
KERI 261739Z 2618/2718 25010KT P6SM VCSH BKN070
     FM262100 25010KT P6SM VCTS BKN050CB
     FM270000 25008KT 5SM -SHRA OVC035
     FM270700 23009KT P6SM VCSH BKN025
     FM271500 26009KT P6SM BKN035=

USA.gov is the U.S. government's official web portal to all federal, state and local government web resources and services.